Time;durP1;ratioP1;P1;durP2;ratioP2;P2;SDS_P1;SDS_P2;PMS_P1;PMS_P2;Temp;Humidity;BMP_temperature;BMP_pressure;BME280_temperature;BME280_humidity;BME280_pressure;Samples;Min_cycle;Max_cycle;Signal;HPM_P1;HPM_P2
2023/02/16 00:00:51;;;;;;;;;;;;;;;10.94;44.22;101547.91;4961908;28;115854;-66
2023/02/16 00:03:19;;;;;;;;;;;;;;;10.93;44.00;101548.97;4965855;28;128003;-66
2023/02/16 00:05:45;;;;;;;;;;;;;;;10.91;43.89;101543.81;4964194;28;98019;-66
2023/02/16 00:08:11;;;;;;;;;;;;;;;10.88;44.06;101528.09;4947119;28;123124;-66
2023/02/16 00:10:37;;;;;;;;;;;;;;;10.88;44.18;101532.69;4961188;28;121595;-66
2023/02/16 00:16:05;;;;;;;;;;;;;;;10.86;44.21;101534.81;4960304;28;98022;-67
2023/02/16 00:18:30;;;;;;;;;;;;;;;10.82;43.80;101529.09;4960948;28;110907;-67
2023/02/16 00:20:56;;;;;;;;;;;;;;;10.78;44.13;101528.75;4943202;28;127191;-67
2023/02/16 00:23:22;;;;;;;;;;;;;;;10.75;44.12;101526.53;4959414;28;113527;-67
2023/02/16 00:25:48;;;;;;;;;;;;;;;10.72;44.16;101527.00;4962801;28;125954;-67
2023/02/16 00:28:16;;;;;;;;;;;;;;;10.69;44.10;101535.63;4963602;28;122627;-66
2023/02/16 00:30:42;;;;;;;;;;;;;;;10.67;43.81;101520.72;4944775;28;98001;-67
2023/02/16 00:33:19;;;;;;;;;;;;;;;10.62;43.81;101526.84;4961908;28;128594;-66
2023/02/16 00:35:45;;;;;;;;;;;;;;;10.62;43.73;101524.16;4961280;28;99529;-66
2023/02/16 00:38:11;;;;;;;;;;;;;;;10.61;44.13;101521.69;4943827;28;97927;-66
2023/02/16 00:40:37;;;;;;;;;;;;;;;10.57;44.02;101511.41;4944313;27;98380;-67
2023/02/16 00:43:03;;;;;;;;;;;;;;;10.57;44.33;101515.94;4942410;28;99875;-66
2023/02/16 00:45:29;;;;;;;;;;;;;;;10.55;43.93;101516.19;4961060;28;127131;-66
2023/02/16 00:47:55;;;;;;;;;;;;;;;10.53;43.87;101515.63;4959247;28;117984;-66
2023/02/16 00:50:32;;;;;;;;;;;;;;;10.51;43.70;101515.03;4961128;28;98227;-66
2023/02/16 00:52:58;;;;;;;;;;;;;;;10.51;44.28;101514.22;4945670;28;107216;-66
2023/02/16 00:55:25;;;;;;;;;;;;;;;10.47;43.70;101513.91;4961815;28;99220;-66
2023/02/16 00:57:55;;;;;;;;;;;;;;;10.46;43.95;101520.34;4946070;28;119965;-66
2023/02/16 01:00:27;;;;;;;;;;;;;;;10.44;43.87;101519.75;4943563;28;98040;-66
2023/02/16 01:02:55;;;;;;;;;;;;;;;10.44;44.12;101527.03;4946502;28;97984;-66
2023/02/16 01:05:21;;;;;;;;;;;;;;;10.43;44.17;101528.09;4962820;28;113621;-67
2023/02/16 01:13:16;;;;;;;;;;;;;;;10.38;44.15;101512.66;4956545;28;98131;-67
2023/02/16 01:15:42;;;;;;;;;;;;;;;10.37;43.89;101518.28;4927777;28;125182;-67
2023/02/16 01:18:10;;;;;;;;;;;;;;;10.36;43.78;101522.03;4922034;28;123376;-67
2023/02/16 01:20:36;;;;;;;;;;;;;;;10.35;43.65;101520.41;4942203;28;119753;-67
2023/02/16 01:23:02;;;;;;;;;;;;;;;10.32;44.27;101516.28;4942461;28;127843;-67
2023/02/16 01:25:28;;;;;;;;;;;;;;;10.31;43.80;101520.88;4958466;28;124633;-66
2023/02/16 01:27:53;;;;;;;;;;;;;;;10.30;43.72;101511.16;4924010;28;122221;-67
2023/02/16 01:30:20;;;;;;;;;;;;;;;10.29;44.08;101517.59;4928788;28;125224;-67
2023/02/16 01:32:50;;;;;;;;;;;;;;;10.28;43.74;101521.34;4927381;28;99750;-66
2023/02/16 01:35:18;;;;;;;;;;;;;;;10.27;44.24;101513.50;4924459;28;98968;-67
2023/02/16 01:37:44;;;;;;;;;;;;;;;10.25;43.86;101511.03;4945413;28;98454;-67
2023/02/16 01:40:27;;;;;;;;;;;;;;;10.26;43.85;101519.97;4941312;28;128148;-66
2023/02/16 01:42:56;;;;;;;;;;;;;;;10.24;43.75;101522.03;4956521;28;97961;-67
2023/02/16 01:45:41;;;;;;;;;;;;;;;10.23;43.86;101525.81;4928162;28;98224;-67
2023/02/16 01:48:16;;;;;;;;;;;;;;;10.21;44.36;101519.81;4926969;28;120321;-67
2023/02/16 01:50:53;;;;;;;;;;;;;;;10.20;43.72;101521.69;4950869;28;98499;-67
2023/02/16 01:53:21;;;;;;;;;;;;;;;10.20;44.28;101519.00;4941593;28;123145;-67
2023/02/16 01:55:51;;;;;;;;;;;;;;;10.18;43.85;101523.81;4926358;28;98302;-66
2023/02/16 01:58:34;;;;;;;;;;;;;;;10.17;43.78;101526.75;4941456;28;113149;-67
2023/02/16 02:01:00;;;;;;;;;;;;;;;10.17;43.79;101524.03;4927535;28;119392;-67
2023/02/16 02:06:19;;;;;;;;;;;;;;;10.13;43.84;101521.00;4944278;28;98248;-68
2023/02/16 02:09:01;;;;;;;;;;;;;;;10.11;43.98;101506.97;4944193;28;108518;-66
2023/02/16 02:11:33;;;;;;;;;;;;;;;10.11;44.19;101514.25;4942731;28;98188;-66
2023/02/16 02:14:10;;;;;;;;;;;;;;;10.10;43.96;101505.34;4927212;28;120649;-66
2023/02/16 02:16:36;;;;;;;;;;;;;;;10.09;44.35;101506.38;4924826;28;103734;-67
2023/02/16 02:19:02;;;;;;;;;;;;;;;10.07;44.20;101503.13;4922526;28;123994;-66
2023/02/16 02:25:05;;;;;;;;;;;;;;;10.05;43.98;101497.13;4958555;28;99497;-66
2023/02/16 02:27:43;;;;;;;;;;;;;;;10.03;43.76;101494.69;4942869;28;125476;-66
2023/02/16 02:30:44;;;;;;;;;;;;;;;10.02;43.85;101500.31;4924844;28;99952;-66
2023/02/16 02:33:41;;;;;;;;;;;;;;;10.02;43.64;101497.59;4924217;28;121660;-66
2023/02/16 02:36:41;;;;;;;;;;;;;;;10.00;43.86;101489.78;4940768;28;114415;-66
2023/02/16 02:39:19;;;;;;;;;;;;;;;10.00;43.92;101502.44;4941741;28;122784;-66
2023/02/16 02:42:05;;;;;;;;;;;;;;;9.98;43.98;101501.84;4941485;28;123000;-68
2023/02/16 02:45:03;;;;;;;;;;;;;;;9.97;44.12;101492.94;4944753;28;98142;-67
2023/02/16 02:47:39;;;;;;;;;;;;;;;9.96;43.74;101496.69;4873631;28;118380;-67
2023/02/16 02:50:23;;;;;;;;;;;;;;;9.95;43.67;101489.69;4942547;28;98902;-68
2023/02/16 02:52:49;;;;;;;;;;;;;;;9.94;43.73;101489.91;4958598;28;98968;-66
2023/02/16 03:00:46;;;;;;;;;;;;;;;9.91;44.31;101503.88;4940003;28;98987;-67
2023/02/16 03:03:39;;;;;;;;;;;;;;;9.90;43.63;101503.03;4920919;28;98165;-67
2023/02/16 03:06:12;;;;;;;;;;;;;;;9.90;43.64;101489.56;4941207;28;116485;-66
2023/02/16 03:08:39;;;;;;;;;;;;;;;9.88;44.46;101496.25;4940233;28;99938;-67
2023/02/16 03:14:20;;;;;;;;;;;;;;;9.86;43.99;101495.66;4958378;28;98086;-67
2023/02/16 03:30:33;;;;;;;;;;;;;;;9.86;44.51;101506.44;4938525;28;100152;-67
2023/02/16 03:33:00;;;;;;;;;;;;;;;9.91;43.84;101503.88;4902461;28;126790;-67
2023/02/16 03:35:26;;;;;;;;;;;;;;;9.98;44.10;101512.59;4926280;28;98120;-67
2023/02/16 03:37:52;;;;;;;;;;;;;;;10.00;44.24;101503.25;4941289;28;127934;-67
2023/02/16 03:40:31;;;;;;;;;;;;;;;10.06;43.62;101509.53;4940046;28;127314;-68
2023/02/16 03:42:59;;;;;;;;;;;;;;;10.09;44.14;101501.81;4925476;28;97949;-67
2023/02/16 03:45:25;;;;;;;;;;;;;;;10.11;43.77;101498.88;4940268;28;98248;-68
2023/02/16 03:47:51;;;;;;;;;;;;;;;10.13;44.27;101496.75;4938375;28;128860;-67
2023/02/16 03:50:17;;;;;;;;;;;;;;;10.15;43.95;101501.94;4936477;28;97935;-67
2023/02/16 03:52:43;;;;;;;;;;;;;;;10.15;44.09;101500.03;4922941;28;97974;-67
2023/02/16 03:55:09;;;;;;;;;;;;;;;10.14;43.69;101501.13;4937478;28;123751;-67
2023/02/16 03:57:35;;;;;;;;;;;;;;;10.16;43.92;101498.97;4939430;28;100000;-67
2023/02/16 04:00:01;;;;;;;;;;;;;;;10.16;43.92;101493.59;4926164;28;129103;-67
2023/02/16 04:02:27;;;;;;;;;;;;;;;10.15;43.75;101486.56;4926288;28;126344;-67
2023/02/16 04:04:53;;;;;;;;;;;;;;;10.14;44.47;101487.63;4932498;28;124383;-67
2023/02/16 04:07:19;;;;;;;;;;;;;;;10.14;44.12;101487.63;4923634;28;100511;-67
2023/02/16 04:09:45;;;;;;;;;;;;;;;10.13;43.70;101490.56;4942821;28;128699;-67
2023/02/16 04:14:56;;;;;;;;;;;;;;;10.10;44.52;101486.47;4958620;28;98087;-66
2023/02/16 04:17:23;;;;;;;;;;;;;;;10.09;43.96;101493.72;4944863;28;98507;-67
2023/02/16 04:19:49;;;;;;;;;;;;;;;10.08;43.73;101488.59;4957148;28;128253;-67
2023/02/16 04:22:14;;;;;;;;;;;;;;;10.07;44.00;101490.47;4942850;28;127851;-67
2023/02/16 04:24:40;;;;;;;;;;;;;;;10.07;44.04;101478.88;4957785;28;122463;-67
2023/02/16 04:27:06;;;;;;;;;;;;;;;10.03;43.86;101483.91;4943455;28;119488;-66
2023/02/16 04:29:32;;;;;;;;;;;;;;;10.03;43.79;101480.41;4924669;28;128763;-66
2023/02/16 04:31:58;;;;;;;;;;;;;;;10.02;44.08;101484.13;4942070;28;123944;-66
2023/02/16 04:34:24;;;;;;;;;;;;;;;10.01;43.55;101490.59;4924283;28;122333;-66
2023/02/16 04:36:50;;;;;;;;;;;;;;;9.99;43.63;101490.84;4940101;28;128096;-66
2023/02/16 04:39:16;;;;;;;;;;;;;;;9.99;43.89;101488.16;4927665;28;127627;-67
2023/02/16 04:41:42;;;;;;;;;;;;;;;9.97;43.51;101487.56;4920107;28;98114;-68
2023/02/16 04:44:08;;;;;;;;;;;;;;;9.95;43.91;101489.69;4926163;28;97919;-67
2023/02/16 04:46:34;;;;;;;;;;;;;;;9.95;44.33;101494.25;4955215;28;127960;-67
2023/02/16 04:49:00;;;;;;;;;;;;;;;9.95;44.01;101491.56;4958653;28;98503;-67
2023/02/16 04:51:25;;;;;;;;;;;;;;;9.94;44.61;101489.91;4917983;28;126820;-67
2023/02/16 04:53:51;;;;;;;;;;;;;;;9.92;43.64;101498.22;4955870;28;121757;-67
2023/02/16 04:56:17;;;;;;;;;;;;;;;9.92;44.08;101495.53;4924865;28;129142;-67
2023/02/16 04:58:43;;;;;;;;;;;;;;;9.92;43.62;101505.50;4937479;28;128817;-66
2023/02/16 05:01:20;;;;;;;;;;;;;;;9.90;43.77;101505.72;4939608;28;126535;-67
2023/02/16 05:03:46;;;;;;;;;;;;;;;9.89;43.89;101501.41;4936677;28;98000;-67
2023/02/16 05:06:11;;;;;;;;;;;;;;;9.89;44.00;101503.28;4927133;28;116137;-67
2023/02/16 05:08:37;;;;;;;;;;;;;;;9.88;44.18;101490.88;4956830;28;128566;-67
2023/02/16 05:16:32;;;;;;;;;;;;;;;9.83;43.89;101495.09;4962054;27;98281;-67
2023/02/16 05:18:59;;;;;;;;;;;;;;;9.82;44.17;101496.16;4945845;27;128493;-66
2023/02/16 05:21:31;;;;;;;;;;;;;;;9.79;44.12;101496.63;4945922;27;105343;-67
2023/02/16 05:23:57;;;;;;;;;;;;;;;9.78;43.87;101494.16;4958890;27;98061;-66
2023/02/16 05:26:23;;;;;;;;;;;;;;;9.77;43.82;101487.94;4979509;27;98710;-67
2023/02/16 05:28:49;;;;;;;;;;;;;;;9.76;43.40;101489.00;4960514;27;127076;-66
2023/02/16 05:31:15;;;;;;;;;;;;;;;9.75;43.56;101494.66;4963425;28;98141;-67
2023/02/16 05:33:41;;;;;;;;;;;;;;;9.75;43.90;101492.78;4957050;28;122841;-66
2023/02/16 05:36:07;;;;;;;;;;;;;;;9.75;43.84;101494.66;4973711;27;124022;-66
2023/02/16 05:38:33;;;;;;;;;;;;;;;9.75;44.20;101483.88;4958725;27;114763;-67
2023/02/16 05:40:59;;;;;;;;;;;;;;;9.74;44.31;101484.91;4956441;27;110143;-66
2023/02/16 05:43:25;;;;;;;;;;;;;;;9.74;43.84;101485.72;4960185;27;117528;-67
2023/02/16 05:45:51;;;;;;;;;;;;;;;9.71;44.34;101480.84;4942877;27;129691;-67
2023/02/16 05:48:16;;;;;;;;;;;;;;;9.72;44.05;101492.41;4959419;28;128356;-68
2023/02/16 05:50:42;;;;;;;;;;;;;;;9.71;44.05;101485.41;4967169;27;127008;-67
2023/02/16 05:53:08;;;;;;;;;;;;;;;9.71;43.41;101493.50;4923587;28;123948;-67
2023/02/16 05:55:34;;;;;;;;;;;;;;;9.69;43.79;101495.59;4949208;28;113817;-67
2023/02/16 05:58:00;;;;;;;;;;;;;;;9.69;43.82;101487.50;4956148;28;128273;-67
2023/02/16 06:00:26;;;;;;;;;;;;;;;9.69;43.56;101503.66;4958158;27;99594;-67
2023/02/16 06:02:52;;;;;;;;;;;;;;;9.69;43.76;101514.44;4960611;27;97944;-67
2023/02/16 06:05:18;;;;;;;;;;;;;;;9.69;43.61;101517.13;4942546;27;127634;-67
2023/02/16 06:07:44;;;;;;;;;;;;;;;9.68;44.01;101508.22;4961110;27;123652;-67
2023/02/16 06:10:10;;;;;;;;;;;;;;;9.67;44.01;101505.75;4949333;28;97884;-67
2023/02/16 06:12:36;;;;;;;;;;;;;;;9.67;44.04;101511.97;4962169;27;115977;-67
2023/02/16 06:15:02;;;;;;;;;;;;;;;9.67;44.45;101511.13;4979235;27;130533;-67
2023/02/16 06:17:28;;;;;;;;;;;;;;;9.67;43.80;101505.75;4959750;28;115982;-67
2023/02/16 06:19:54;;;;;;;;;;;;;;;9.66;44.32;101507.63;4944620;28;98140;-67
2023/02/16 06:22:20;;;;;;;;;;;;;;;9.67;44.09;101508.44;4974566;27;99916;-67
2023/02/16 06:24:46;;;;;;;;;;;;;;;9.66;44.04;101513.00;4959428;28;127520;-67
2023/02/16 06:27:12;;;;;;;;;;;;;;;9.65;43.77;101511.38;4953993;28;129053;-67
2023/02/16 06:29:38;;;;;;;;;;;;;;;9.67;44.05;101511.13;4962462;28;101396;-67
2023/02/16 06:32:04;;;;;;;;;;;;;;;9.68;43.81;101512.78;4944671;28;106734;-67
2023/02/16 06:34:30;;;;;;;;;;;;;;;9.68;44.07;101512.78;4943228;28;129098;-67
2023/02/16 06:36:55;;;;;;;;;;;;;;;9.69;43.80;101509.03;4956854;28;127712;-67
2023/02/16 06:39:21;;;;;;;;;;;;;;;9.70;43.75;101506.09;4960307;28;126561;-68
2023/02/16 06:41:47;;;;;;;;;;;;;;;9.72;44.42;101503.19;4943279;28;122412;-67
2023/02/16 06:44:14;;;;;;;;;;;;;;;9.75;43.92;101500.03;4942116;28;98976;-67
2023/02/16 06:46:44;;;;;;;;;;;;;;;9.78;43.80;101507.63;4972925;28;98464;-67
2023/02/16 06:49:15;;;;;;;;;;;;;;;9.79;43.83;101502.00;4960226;28;98074;-67
2023/02/16 06:51:41;;;;;;;;;;;;;;;9.84;43.81;101509.38;4958808;28;98910;-67
2023/02/16 06:54:07;;;;;;;;;;;;;;;9.87;43.84;101516.16;4939412;28;130017;-67
2023/02/16 06:56:33;;;;;;;;;;;;;;;9.91;44.11;101512.75;4940617;28;129112;-68
2023/02/16 06:58:59;;;;;;;;;;;;;;;9.94;43.40;101520.38;4975311;27;128614;-67
2023/02/16 07:01:25;;;;;;;;;;;;;;;9.97;43.52;101521.75;4959605;28;121936;-67
2023/02/16 07:03:51;;;;;;;;;;;;;;;9.99;43.55;101515.09;4944468;28;98308;-67
2023/02/16 07:06:17;;;;;;;;;;;;;;;10.02;43.65;101514.63;4977003;27;126103;-67
2023/02/16 07:08:43;;;;;;;;;;;;;;;10.06;43.28;101501.47;4944093;28;97899;-69
2023/02/16 07:11:09;;;;;;;;;;;;;;;10.09;43.67;101515.28;4943188;28;98050;-67
2023/02/16 07:13:35;;;;;;;;;;;;;;;10.14;43.44;101503.81;4918470;28;117154;-67
2023/02/16 07:16:03;;;;;;;;;;;;;;;10.19;43.48;101495.81;4958429;28;108713;-67
2023/02/16 07:18:29;;;;;;;;;;;;;;;10.25;43.47;101499.44;4923361;28;97936;-67
2023/02/16 07:20:55;;;;;;;;;;;;;;;10.29;43.30;101497.91;4925280;28;108684;-67
2023/02/16 07:23:20;;;;;;;;;;;;;;;10.31;43.81;101488.53;4945753;28;112656;-67
2023/02/16 07:25:47;;;;;;;;;;;;;;;10.36;43.30;101493.19;4929890;28;110783;-67
2023/02/16 07:28:13;;;;;;;;;;;;;;;10.45;43.21;101501.72;4941274;28;110332;-67
2023/02/16 07:30:39;;;;;;;;;;;;;;;10.55;43.29;101499.22;4940860;28;118330;-67
2023/02/16 07:33:05;;;;;;;;;;;;;;;10.61;43.43;101502.81;4939139;28;98474;-68
2023/02/16 07:35:32;;;;;;;;;;;;;;;10.64;43.61;101507.72;4941523;28;98299;-67
2023/02/16 07:37:58;;;;;;;;;;;;;;;10.75;42.98;101510.34;4928680;28;98104;-68
2023/02/16 07:40:24;;;;;;;;;;;;;;;10.89;42.70;101512.75;4928213;28;123157;-67
2023/02/16 07:42:49;;;;;;;;;;;;;;;10.96;43.20;101522.31;4943319;28;98175;-67
2023/02/16 07:45:16;;;;;;;;;;;;;;;11.04;42.74;101524.63;4943537;28;112821;-67
2023/02/16 07:47:41;;;;;;;;;;;;;;;11.31;42.59;101521.25;4929532;28;111769;-67
2023/02/16 07:50:07;;;;;;;;;;;;;;;11.54;42.57;101525.63;4943142;28;122411;-67
2023/02/16 07:52:33;;;;;;;;;;;;;;;11.78;42.43;101520.84;4921448;28;104802;-67
2023/02/16 07:54:59;;;;;;;;;;;;;;;11.98;42.33;101517.63;4928002;28;127225;-67
2023/02/16 07:57:26;;;;;;;;;;;;;;;12.20;42.00;101520.31;4947562;28;124953;-67
2023/02/16 07:59:52;;;;;;;;;;;;;;;12.48;41.99;101516.56;4942456;28;105974;-67
2023/02/16 08:02:19;;;;;;;;;;;;;;;12.75;42.04;101511.16;4929133;28;99533;-67
2023/02/16 08:04:45;;;;;;;;;;;;;;;13.08;41.76;101515.50;4914839;28;99683;-68
2023/02/16 08:07:15;;;;;;;;;;;;;;;13.50;41.32;101507.44;4928065;28;100197;-66
2023/02/16 08:09:41;;;;;;;;;;;;;;;13.98;41.00;101505.50;4929544;28;98333;-67
2023/02/16 08:12:09;;;;;;;;;;;;;;;14.42;41.01;101499.72;4928592;28;127492;-66
2023/02/16 08:14:34;;;;;;;;;;;;;;;14.86;40.62;101493.81;4954166;28;99956;-66
2023/02/16 08:17:00;;;;;;;;;;;;;;;15.37;40.41;101490.25;4935761;28;125695;-67
2023/02/16 08:19:28;;;;;;;;;;;;;;;15.83;40.39;101487.41;4943684;28;97862;-68
2023/02/16 08:21:54;;;;;;;;;;;;;;;16.31;40.27;101487.72;4929049;28;99444;-67
2023/02/16 08:24:20;;;;;;;;;;;;;;;16.78;40.21;101487.19;4940399;28;112497;-67
2023/02/16 08:26:48;;;;;;;;;;;;;;;17.23;40.14;101482.41;4958694;28;98171;-67
2023/02/16 08:29:16;;;;;;;;;;;;;;;17.71;40.08;101476.19;4959214;28;97802;-67
2023/02/16 08:31:43;;;;;;;;;;;;;;;18.15;39.91;101484.09;4927798;28;97971;-66
2023/02/16 08:34:09;;;;;;;;;;;;;;;18.51;39.83;101467.22;4943854;28;99990;-67
2023/02/16 08:36:37;;;;;;;;;;;;;;;18.86;39.82;101474.06;4925528;28;127681;-66
2023/02/16 08:39:10;;;;;;;;;;;;;;;19.36;39.88;101471.53;4940111;28;98280;-67
2023/02/16 08:41:36;;;;;;;;;;;;;;;19.89;39.48;101475.75;4944628;28;98313;-67
2023/02/16 08:44:03;;;;;;;;;;;;;;;20.35;39.51;101489.19;4928297;28;100307;-68
2023/02/16 08:46:29;;;;;;;;;;;;;;;20.75;39.51;101483.91;4924865;28;98134;-67
2023/02/16 08:48:57;;;;;;;;;;;;;;;21.13;39.52;101476.09;4957961;28;98075;-67
2023/02/16 08:51:24;;;;;;;;;;;;;;;21.66;39.19;101486.22;4942476;28;99913;-68
2023/02/16 08:53:51;;;;;;;;;;;;;;;22.24;39.14;101495.25;4961114;28;98090;-68
2023/02/16 08:56:17;;;;;;;;;;;;;;;22.95;38.82;101497.66;4958533;28;98634;-68
2023/02/16 08:58:43;;;;;;;;;;;;;;;23.59;38.75;101492.13;4941696;28;99530;-68
2023/02/16 09:01:09;;;;;;;;;;;;;;;24.45;38.25;101490.84;4957367;28;127418;-68
2023/02/16 09:03:37;;;;;;;;;;;;;;;25.22;37.80;101491.22;4926925;28;99589;-66
2023/02/16 09:06:04;;;;;;;;;;;;;;;25.94;37.74;101485.31;4956920;28;98051;-68
2023/02/16 09:08:31;;;;;;;;;;;;;;;26.50;38.01;101495.69;4957442;28;98090;-70
2023/02/16 09:11:01;;;;;;;;;;;;;;;27.04;37.70;101489.63;4943166;28;98750;-67
2023/02/16 09:13:27;;;;;;;;;;;;;;;28.09;37.07;101476.03;4943337;28;98497;-69
2023/02/16 09:15:53;;;;;;;;;;;;;;;29.00;36.58;101477.50;4914859;28;128016;-69
2023/02/16 09:18:19;;;;;;;;;;;;;;;29.34;36.85;101478.47;4943904;28;98235;-67
2023/02/16 09:20:45;;;;;;;;;;;;;;;29.43;37.13;101466.31;4923604;28;98157;-67
2023/02/16 09:23:11;;;;;;;;;;;;;;;29.61;37.08;101472.19;4944433;28;98320;-70
2023/02/16 09:25:38;;;;;;;;;;;;;;;29.65;37.48;101479.41;4940617;28;127567;-69
2023/02/16 09:28:04;;;;;;;;;;;;;;;29.53;37.49;101480.38;4907133;28;98243;-70
2023/02/16 09:30:30;;;;;;;;;;;;;;;28.35;38.86;101480.16;4946087;28;98353;-67
2023/02/16 09:32:58;;;;;;;;;;;;;;;27.46;39.76;101470.59;4930447;28;99721;-69
2023/02/16 09:35:24;;;;;;;;;;;;;;;26.78;40.18;101468.03;4944399;28;99984;-66
2023/02/16 09:37:50;;;;;;;;;;;;;;;26.25;40.71;101467.25;4945427;28;98082;-69
2023/02/16 09:40:16;;;;;;;;;;;;;;;25.77;40.78;101460.66;4927608;28;123777;-69
2023/02/16 09:43:02;;;;;;;;;;;;;;;25.39;41.00;101459.09;4960579;28;98369;-67
2023/02/16 09:45:28;;;;;;;;;;;;;;;25.11;41.19;101462.50;4948799;28;98611;-67
2023/02/16 09:47:55;;;;;;;;;;;;;;;24.95;40.77;101467.81;4913837;28;98202;-69
2023/02/16 09:50:23;;;;;;;;;;;;;;;25.33;40.44;101465.97;4920661;28;98426;-66
2023/02/16 09:53:02;;;;;;;;;;;;;;;25.90;39.74;101465.06;4942346;28;98038;-66
2023/02/16 09:55:38;;;;;;;;;;;;;;;26.65;39.08;101470.84;4941475;28;98783;-70
2023/02/16 09:58:17;;;;;;;;;;;;;;;27.58;38.54;101472.44;4942204;28;98312;-69
2023/02/16 10:00:48;;;;;;;;;;;;;;;28.23;38.48;101475.53;4944136;28;104441;-70
2023/02/16 10:03:33;;;;;;;;;;;;;;;28.82;38.04;101470.81;4924987;28;98410;-70
2023/02/16 10:06:09;;;;;;;;;;;;;;;29.81;37.54;101465.34;4957512;28;97882;-67
2023/02/16 10:08:37;;;;;;;;;;;;;;;30.80;36.93;101476.16;4943975;28;98142;-70
2023/02/16 10:14:14;;;;;;;;;;;;;;;32.32;36.12;101465.75;4962691;28;99342;-67
2023/02/16 10:16:44;;;;;;;;;;;;;;;32.72;36.03;101467.50;4974900;28;101044;-67
2023/02/16 10:19:20;;;;;;;;;;;;;;;33.27;36.11;101456.00;4941470;28;98362;-72
2023/02/16 10:21:48;;;;;;;;;;;;;;;33.39;35.91;101454.81;4953545;28;98249;-67
2023/02/16 10:24:14;;;;;;;;;;;;;;;32.99;36.88;101448.44;4936904;28;98384;-70
2023/02/16 10:26:48;;;;;;;;;;;;;;;33.24;36.32;101448.44;4941796;28;98041;-70
2023/02/16 10:29:15;;;;;;;;;;;;;;;33.97;36.30;101447.94;4935497;28;114310;-68
2023/02/16 10:31:46;;;;;;;;;;;;;;;34.06;36.48;101441.94;4935350;28;99585;-68
2023/02/16 10:34:31;;;;;;;;;;;;;;;33.98;36.55;101435.56;4924844;28;99597;-72
2023/02/16 10:37:08;;;;;;;;;;;;;;;34.34;36.33;101432.59;4959495;28;98165;-67
2023/02/16 10:39:59;;;;;;;;;;;;;;;35.16;35.84;101432.09;4954361;28;99167;-68
2023/02/16 10:43:06;;;;;;;;;;;;;;;36.02;35.05;101422.81;4940987;28;98065;-72
2023/02/16 10:45:36;;;;;;;;;;;;;;;36.90;34.57;101430.38;4943744;28;98821;-72
2023/02/16 10:48:02;;;;;;;;;;;;;;;37.63;34.54;101423.91;4956691;28;98080;-67
2023/02/16 10:50:50;;;;;;;;;;;;;;;38.49;33.89;101425.75;4919792;28;98022;-68
2023/02/16 10:53:20;;;;;;;;;;;;;;;39.30;33.31;101432.63;4957723;28;99087;-71
2023/02/16 10:55:46;;;;;;;;;;;;;;;39.84;32.99;101434.78;4939739;28;99106;-67
2023/02/16 10:58:37;;;;;;;;;;;;;;;40.32;32.74;101438.63;4936906;28;125724;-71
2023/02/16 11:01:15;;;;;;;;;;;;;;;40.71;32.85;101426.09;4948373;28;100932;-67
2023/02/16 11:03:50;;;;;;;;;;;;;;;40.89;33.03;101419.06;4954230;28;98580;-67
2023/02/16 11:06:24;;;;;;;;;;;;;;;41.18;32.87;101411.19;4933686;28;97941;-67
2023/02/16 11:08:58;;;;;;;;;;;;;;;41.40;32.85;101407.66;4936291;28;98238;-67
2023/02/16 11:11:28;;;;;;;;;;;;;;;41.29;32.84;101413.66;4921550;28;98246;-72
2023/02/16 11:14:17;;;;;;;;;;;;;;;40.78;33.63;101407.34;4956272;28;98364;-67
2023/02/16 11:16:43;;;;;;;;;;;;;;;40.07;34.14;101399.06;4937825;28;100052;-67
2023/02/16 11:19:19;;;;;;;;;;;;;;;39.28;34.99;101393.63;4924196;28;127798;-67
2023/02/16 11:21:47;;;;;;;;;;;;;;;38.43;35.38;101384.47;4921858;28;98199;-67
2023/02/16 11:24:30;;;;;;;;;;;;;;;37.38;36.43;101379.41;4908761;28;98609;-67
2023/02/16 11:27:12;;;;;;;;;;;;;;;35.99;37.84;101375.97;4958594;28;97882;-67
2023/02/16 11:29:38;;;;;;;;;;;;;;;34.80;38.35;101372.78;4956077;28;98767;-71
2023/02/16 11:32:08;;;;;;;;;;;;;;;33.92;38.87;101375.66;4923087;28;104051;-67
2023/02/16 11:34:45;;;;;;;;;;;;;;;33.10;39.37;101361.91;4940649;28;98268;-71
2023/02/16 11:37:29;;;;;;;;;;;;;;;32.40;39.52;101370.59;4921259;28;100556;-71
2023/02/16 11:40:04;;;;;;;;;;;;;;;31.84;40.15;101360.03;4938877;28;99338;-71
2023/02/16 11:42:34;;;;;;;;;;;;;;;31.33;40.20;101363.72;4920633;28;98029;-70
2023/02/16 11:45:00;;;;;;;;;;;;;;;30.91;40.21;101373.31;4958702;28;98278;-71
2023/02/16 11:47:31;;;;;;;;;;;;;;;30.50;40.39;101357.44;4940241;28;107395;-71
2023/02/16 11:50:16;;;;;;;;;;;;;;;30.08;40.47;101364.09;4924948;28;98256;-71
2023/02/16 11:52:41;;;;;;;;;;;;;;;29.56;40.92;101357.47;4956332;28;97854;-67
2023/02/16 11:55:18;;;;;;;;;;;;;;;29.09;41.16;101355.97;4924922;28;113258;-71
2023/02/16 11:57:44;;;;;;;;;;;;;;;28.66;41.29;101357.22;4936687;28;98848;-71
2023/02/16 12:00:18;;;;;;;;;;;;;;;28.34;41.44;101348.28;4937536;28;127291;-68
2023/02/16 12:03:17;;;;;;;;;;;;;;;28.10;40.94;101357.72;4941900;28;112000;-67
2023/02/16 12:06:09;;;;;;;;;;;;;;;27.75;41.03;101350.28;4934836;28;99533;-71
2023/02/16 12:08:37;;;;;;;;;;;;;;;27.43;41.20;101349.50;4936361;28;98482;-69
2023/02/16 12:11:35;;;;;;;;;;;;;;;27.14;41.09;101350.81;4940736;28;97857;-71
2023/02/16 12:14:23;;;;;;;;;;;;;;;26.74;41.27;101346.28;4945443;28;97914;-71
2023/02/16 12:16:55;;;;;;;;;;;;;;;26.32;41.40;101352.22;4959606;28;115361;-71
2023/02/16 12:19:27;;;;;;;;;;;;;;;25.87;41.65;101336.78;4972676;27;98026;-67
2023/02/16 12:22:15;;;;;;;;;;;;;;;25.40;42.02;101331.81;4979637;28;98285;-67
2023/02/16 12:25:17;;;;;;;;;;;;;;;24.93;42.22;101326.75;4956600;28;98007;-69
2023/02/16 12:28:01;;;;;;;;;;;;;;;24.49;42.07;101331.16;4960428;28;99645;-67
2023/02/16 12:30:45;;;;;;;;;;;;;;;24.13;42.25;101329.06;4978804;28;97865;-67
2023/02/16 12:33:40;;;;;;;;;;;;;;;23.76;42.52;101329.69;4961058;28;99353;-67
2023/02/16 12:36:36;;;;;;;;;;;;;;;23.42;42.46;101327.16;4977811;27;98430;-67
2023/02/16 12:39:29;;;;;;;;;;;;;;;23.09;42.75;101327.84;4961083;28;111495;-67
2023/02/16 12:42:16;;;;;;;;;;;;;;;22.78;42.49;101317.91;4977741;27;123978;-67
2023/02/16 12:45:05;;;;;;;;;;;;;;;22.53;42.51;101318.81;4977709;28;97970;-67
2023/02/16 12:47:46;;;;;;;;;;;;;;;22.32;42.68;101317.88;4943216;28;106974;-66
2023/02/16 12:50:26;;;;;;;;;;;;;;;22.11;42.57;101315.00;4960497;28;98084;-67
2023/02/16 12:53:03;;;;;;;;;;;;;;;21.92;42.75;101310.63;4943686;28;98183;-68
2023/02/16 12:55:37;;;;;;;;;;;;;;;21.76;42.57;101313.06;4961562;28;119167;-66
2023/02/16 12:58:13;;;;;;;;;;;;;;;21.61;42.48;101315.47;4976683;27;97913;-69
2023/02/16 13:00:42;;;;;;;;;;;;;;;21.47;42.31;101305.47;4959674;28;100003;-67
2023/02/16 13:03:26;;;;;;;;;;;;;;;21.37;42.66;101307.69;4944113;28;99717;-67
2023/02/16 13:06:17;;;;;;;;;;;;;;;21.26;42.46;101312.63;4978611;27;98012;-67
2023/02/16 13:09:14;;;;;;;;;;;;;;;21.13;42.48;101311.63;4976125;28;118850;-67
2023/02/16 13:11:44;;;;;;;;;;;;;;;21.02;42.50;101302.09;4975262;27;98281;-67
2023/02/16 13:14:15;;;;;;;;;;;;;;;20.95;42.48;101299.03;4940424;28;123059;-66
2023/02/16 13:16:52;;;;;;;;;;;;;;;20.86;42.41;101306.41;4959883;28;98390;-68
2023/02/16 13:19:18;;;;;;;;;;;;;;;20.76;42.42;101294.59;4955836;28;102309;-68
2023/02/16 13:21:59;;;;;;;;;;;;;;;20.70;42.48;101290.38;4942719;28;98355;-68
2023/02/16 13:25:05;;;;;;;;;;;;;;;20.65;42.31;101292.47;4958484;28;98031;-66
2023/02/16 13:27:50;;;;;;;;;;;;;;;20.58;42.28;101290.16;4897187;28;98781;-67
2023/02/16 13:30:40;;;;;;;;;;;;;;;20.54;42.21;101297.38;4956967;27;97979;-67
2023/02/16 13:33:40;;;;;;;;;;;;;;;20.49;42.23;101297.53;4958126;28;98474;-68
2023/02/16 13:36:27;;;;;;;;;;;;;;;20.49;42.30;101298.34;4960436;28;98554;-67
2023/02/16 13:39:30;;;;;;;;;;;;;;;20.53;42.27;101298.53;4960405;28;97967;-67
2023/02/16 13:42:06;;;;;;;;;;;;;;;20.61;42.04;101297.75;4962119;28;99292;-67